Moosonee Airport
CYMO : now visible

Airfield :











YOU CAN JOIN US ON...

 
LOGIN :

Register | Disclaimer

   EN    FR    IT 

 









Legend :    VFR   Marginal VFR   IFR   Intensive IFR   Very Intensive IFR
Visi :
Ceiling :
>= 8 km
>= 3000ft
5 to 8 km
1000 to 3000 ft
1500m to 5 km
500 to 1000 ft
800 to 1500m
200 to 500 ft
< 800m
< 200 ft
Symbols :   Thunderstorms  Fog  Heavy snow  Heavy precipitations  Wind > 20 kt






- Airport Elevation : 30 ft
- IATA code : YMO


CYMO - Moosonee

CURRENT METAR :
  • 260000Z AUTO 36004KT 330V040 9SM -RA FEW055 BKN069 OVC083 09/08 A2996 RMK PCPN 1.0MM PAST HR SLP148

EXPIRED METARs :
  • 252338Z AUTO 03005KT 8SM RA FEW055 SCT074 OVC090 09/08 A2996 RMK SLP146
  • 252314Z AUTO 03005KT 9SM SCT019 BKN060 BKN079 OVC100 09/08 A2994 RMK SLP142
  • 252300Z AUTO 04003KT 360V070 9SM OVC019 09/09 A2993 RMK SLP137
  • 252256Z AUTO 03006KT 340V060 9SM OVC019 09/09 A2993 RMK SLP136
  • 252238Z AUTO 03005KT 330V060 9SM -RA OVC017 10/09 A2992 RMK SLP133
  • 252216Z AUTO 36003KT 340V040 9SM BKN017 BKN039 OVC065 10/09 A2992 RMK SLP133
  • 252209Z AUTO 02005KT 350V080 9SM -RA BKN017 BKN044 OVC065 10/09 A2991 RMK SLP131
  • 252203Z AUTO 05005KT 010V080 6SM -RA BR FEW017 BKN042 BKN050 OVC065 10/10 A2991 RMK SLP130
  • 252156Z AUTO 04005KT 360V060 5SM -RA BR BKN042 BKN050 OVC065 10/10 A2990 RMK SLP128
  • 252140Z AUTO 02005KT 320V030 9SM -RA SCT046 BKN070 OVC086 11/10 A2990 RMK PRESRR SLP128

TAF TAF CYMO
Valid from the 26 at 00:00 until the 26 at 12:00 UTC


252330Z 2600/2612 03005KT P6SM SCT020 BKN060 OVC100
TEMPO 2600/2603 BKN020 OVC060
BECMG 2603/2605 FEW020 SCT100
FM260500 05005KT P6SM FEW020 SCT100
TEMPO 2605/2609 5SM BR
PROB30 2606/2609 2SM BR
FM260900 05005KT P6SM FEW100 BKN160 RMK FCST BASED ON AUTO OBS. NXT FCST BY 260600Z
CZYZ FIR / North America



MET'MAP, your aeronautical weather chart ! - Copyright ORBIFLY December 2007 - Disclaimer

ORBIFLY MET'MAP TEAM :

Programming & Development : Alexandra Zaïnal
Concept & original design : Baudouin d'Aumeries
Assistance for programming : Marc-Olivier Méhu
Technical & hardware support : Manuel Goepfert

Contact : metmap@orbifly.com




SOURCES & CREDITS :

   NOAA       Earth
Advisory